Time;durP1;ratioP1;P1;durP2;ratioP2;P2;SDS_P1;SDS_P2;PMS_P1;PMS_P2;Temp;Humidity;BMP_temperature;BMP_pressure;BME280_temperature;BME280_humidity;BME280_pressure;Samples;Min_cycle;Max_cycle;Signal;HPM_P1;HPM_P2
2023/05/25 00:02:25;;;;;;;7.93;3.80;;;;;;;;;;5022372;28;20199;-80
2023/05/25 00:04:54;;;;;;;5.60;3.60;;;;;;;;;;5023395;28;20215;-80
2023/05/25 00:07:21;;;;;;;5.87;3.70;;;;;;;;;;5033102;28;20231;-80
2023/05/25 00:09:48;;;;;;;10.40;3.93;;;;;;;;;;5029202;28;20556;-80
2023/05/25 00:12:15;;;;;;;9.70;4.20;;;;;;;;;;5028151;28;20202;-80
2023/05/25 00:14:42;;;;;;;7.90;3.90;;;;;;;;;;5025243;28;20258;-80
2023/05/25 00:17:10;;;;;;;9.53;3.70;;;;;;;;;;5031156;28;20305;-80
2023/05/25 00:19:41;;;;;;;10.93;4.10;;;;;;;;;;5029251;28;20217;-80
2023/05/25 00:22:09;;;;;;;10.07;3.63;;;;;;;;;;5023210;28;20229;-80
2023/05/25 00:24:37;;;;;;;12.43;4.07;;;;;;;;;;5029063;28;20202;-82
2023/05/25 00:27:05;;;;;;;7.97;3.77;;;;;;;;;;5031637;28;20231;-80
2023/05/25 00:29:32;;;;;;;11.60;3.70;;;;;;;;;;5031496;28;20206;-80
2023/05/25 00:32:00;;;;;;;10.50;3.93;;;;;;;;;;5030981;28;20253;-80
2023/05/25 00:34:27;;;;;;;6.33;3.63;;;;;;;;;;5031601;28;20293;-80
2023/05/25 00:36:54;;;;;;;6.53;3.97;;;;;;;;;;5034872;28;20730;-80
2023/05/25 00:39:22;;;;;;;9.87;3.93;;;;;;;;;;5036498;28;20660;-80
2023/05/25 00:41:50;;;;;;;10.80;3.57;;;;;;;;;;5033757;28;20726;-79
2023/05/25 00:44:20;;;;;;;5.97;3.50;;;;;;;;;;5026301;28;20302;-79
2023/05/25 00:46:48;;;;;;;8.77;3.90;;;;;;;;;;5029243;28;20322;-80
2023/05/25 00:49:16;;;;;;;4.47;3.60;;;;;;;;;;5031042;28;20211;-79
2023/05/25 00:51:45;;;;;;;8.13;3.80;;;;;;;;;;5029264;28;20637;-79
2023/05/25 00:54:13;;;;;;;7.87;3.57;;;;;;;;;;5023057;28;20202;-79
2023/05/25 00:56:43;;;;;;;9.97;3.70;;;;;;;;;;5019464;28;20498;-80
2023/05/25 00:59:10;;;;;;;8.67;3.87;;;;;;;;;;5025702;28;20535;-80
2023/05/25 01:01:38;;;;;;;6.10;3.10;;;;;;;;;;5023773;28;20719;-80
2023/05/25 01:04:07;;;;;;;8.50;3.60;;;;;;;;;;5021462;28;20294;-80
2023/05/25 01:06:34;;;;;;;5.50;3.90;;;;;;;;;;5027549;28;20794;-79
2023/05/25 01:09:03;;;;;;;6.17;3.47;;;;;;;;;;5029004;28;20215;-80
2023/05/25 01:11:32;;;;;;;6.70;3.97;;;;;;;;;;5026239;28;20231;-79
2023/05/25 01:14:01;;;;;;;9.80;3.73;;;;;;;;;;5030578;28;20238;-80
2023/05/25 01:16:29;;;;;;;7.30;3.93;;;;;;;;;;5027008;28;20237;-79
2023/05/25 01:18:56;;;;;;;5.93;3.23;;;;;;;;;;5037787;28;20314;-79
2023/05/25 01:21:28;;;;;;;7.23;3.90;;;;;;;;;;5040040;28;20226;-79
2023/05/25 01:23:59;;;;;;;9.90;3.77;;;;;;;;;;5032215;28;20260;-80
2023/05/25 01:26:27;;;;;;;5.37;3.47;;;;;;;;;;5027120;28;20245;-80
2023/05/25 01:28:56;;;;;;;10.80;4.23;;;;;;;;;;5025933;28;20231;-79
2023/05/25 01:31:23;;;;;;;5.47;4.00;;;;;;;;;;5042435;28;20230;-80
2023/05/25 01:33:51;;;;;;;7.10;3.93;;;;;;;;;;5029456;28;20199;-80
2023/05/25 01:36:18;;;;;;;6.37;4.17;;;;;;;;;;5041233;28;20234;-80
2023/05/25 01:38:46;;;;;;;5.73;3.83;;;;;;;;;;5033277;28;20238;-79
2023/05/25 01:41:14;;;;;;;6.03;3.53;;;;;;;;;;5025220;28;20230;-80
2023/05/25 01:43:41;;;;;;;6.93;4.27;;;;;;;;;;5029181;28;20214;-80
2023/05/25 01:46:12;;;;;;;7.63;3.63;;;;;;;;;;5030944;28;20227;-79
2023/05/25 01:48:43;;;;;;;4.37;3.43;;;;;;;;;;5033715;28;20254;-79
2023/05/25 01:51:15;;;;;;;6.77;3.57;;;;;;;;;;5038272;28;20230;-80
2023/05/25 01:53:44;;;;;;;6.90;3.40;;;;;;;;;;5027098;28;20253;-80
2023/05/25 01:56:14;;;;;;;6.23;3.60;;;;;;;;;;5030891;28;20265;-80
2023/05/25 01:58:43;;;;;;;4.13;3.60;;;;;;;;;;5034529;28;20234;-79
2023/05/25 02:01:10;;;;;;;9.23;3.90;;;;;;;;;;5029701;28;20230;-80
2023/05/25 02:03:38;;;;;;;4.43;3.43;;;;;;;;;;5034028;28;20673;-79
2023/05/25 02:06:05;;;;;;;6.60;3.60;;;;;;;;;;5030453;28;20238;-79
2023/05/25 02:08:32;;;;;;;4.07;3.30;;;;;;;;;;5029171;28;20619;-80
2023/05/25 02:10:59;;;;;;;6.03;3.77;;;;;;;;;;5032485;28;20606;-79
2023/05/25 02:13:27;;;;;;;5.17;3.83;;;;;;;;;;5042832;28;20702;-79
2023/05/25 02:15:55;;;;;;;6.17;3.90;;;;;;;;;;5031984;28;20231;-80
2023/05/25 02:18:22;;;;;;;4.93;4.23;;;;;;;;;;5031880;28;20242;-80
2023/05/25 02:20:50;;;;;;;9.40;4.30;;;;;;;;;;5036273;28;20611;-79
2023/05/25 02:23:18;;;;;;;10.63;4.23;;;;;;;;;;5039239;28;20905;-81
2023/05/25 02:25:45;;;;;;;8.00;4.10;;;;;;;;;;5032751;28;20230;-80
2023/05/25 02:28:12;;;;;;;5.73;3.93;;;;;;;;;;5041511;28;20238;-80
2023/05/25 02:30:40;;;;;;;7.50;4.17;;;;;;;;;;5032328;28;20225;-80
2023/05/25 02:33:07;;;;;;;5.73;3.97;;;;;;;;;;5040830;28;20206;-80
2023/05/25 02:35:34;;;;;;;4.37;3.43;;;;;;;;;;5023517;28;20234;-80
2023/05/25 02:38:02;;;;;;;5.87;3.47;;;;;;;;;;5030649;28;20326;-80
2023/05/25 02:40:29;;;;;;;8.43;3.93;;;;;;;;;;5023029;28;20730;-80
2023/05/25 02:42:56;;;;;;;5.63;3.67;;;;;;;;;;5026875;28;20214;-80
2023/05/25 02:45:23;;;;;;;8.43;3.90;;;;;;;;;;5026986;28;20233;-80
2023/05/25 02:47:51;;;;;;;11.00;4.23;;;;;;;;;;5030219;28;20231;-80
2023/05/25 02:50:18;;;;;;;7.50;3.67;;;;;;;;;;5031638;28;20239;-79
2023/05/25 02:52:45;;;;;;;6.87;3.97;;;;;;;;;;5029635;28;20214;-79
2023/05/25 02:55:13;;;;;;;5.00;3.40;;;;;;;;;;5027859;28;20249;-79
2023/05/25 02:57:40;;;;;;;8.00;3.70;;;;;;;;;;5017250;28;20231;-79
2023/05/25 03:00:09;;;;;;;8.30;4.10;;;;;;;;;;5031182;28;20238;-80
2023/05/25 03:02:36;;;;;;;7.83;3.87;;;;;;;;;;5029454;28;20241;-79
2023/05/25 03:05:06;;;;;;;6.90;3.87;;;;;;;;;;5024794;28;20239;-80
2023/05/25 03:07:33;;;;;;;7.73;3.57;;;;;;;;;;5035553;28;20254;-80
2023/05/25 03:10:00;;;;;;;7.50;3.80;;;;;;;;;;5033474;28;20699;-80
2023/05/25 03:12:27;;;;;;;5.40;3.97;;;;;;;;;;5027986;28;20206;-79
2023/05/25 03:14:54;;;;;;;10.63;4.17;;;;;;;;;;5030722;28;20245;-79
2023/05/25 03:17:21;;;;;;;6.60;4.37;;;;;;;;;;5025704;28;20265;-79
2023/05/25 03:19:48;;;;;;;7.57;3.90;;;;;;;;;;5039158;28;20217;-79
2023/05/25 03:22:16;;;;;;;8.20;4.33;;;;;;;;;;5032699;28;20226;-80
2023/05/25 03:24:45;;;;;;;7.90;4.03;;;;;;;;;;5031474;28;20210;-80
2023/05/25 03:27:12;;;;;;;9.93;4.20;;;;;;;;;;5040499;28;20234;-80
2023/05/25 03:29:39;;;;;;;7.00;4.03;;;;;;;;;;5031798;28;20207;-80
2023/05/25 03:32:07;;;;;;;9.33;4.10;;;;;;;;;;5040549;28;20203;-80
2023/05/25 03:34:35;;;;;;;6.07;4.03;;;;;;;;;;5031814;28;20211;-80
2023/05/25 03:37:02;;;;;;;7.10;4.53;;;;;;;;;;5031739;28;20296;-81
2023/05/25 03:39:30;;;;;;;11.67;3.90;;;;;;;;;;5031859;28;20211;-80
2023/05/25 03:41:57;;;;;;;10.30;4.23;;;;;;;;;;5039626;28;20273;-80
2023/05/25 03:44:25;;;;;;;5.27;4.03;;;;;;;;;;5043627;28;20649;-80
2023/05/25 03:46:52;;;;;;;5.70;4.10;;;;;;;;;;5042980;28;20261;-80
2023/05/25 03:49:19;;;;;;;10.43;4.20;;;;;;;;;;5040424;28;20205;-80
2023/05/25 03:51:46;;;;;;;10.40;4.70;;;;;;;;;;5031338;28;20234;-80
2023/05/25 03:54:13;;;;;;;6.67;4.03;;;;;;;;;;5039818;28;20205;-80
2023/05/25 03:56:41;;;;;;;5.47;4.13;;;;;;;;;;5037020;28;20267;-80
2023/05/25 03:59:08;;;;;;;8.03;4.10;;;;;;;;;;5033859;28;20210;-80
2023/05/25 04:01:37;;;;;;;6.43;4.37;;;;;;;;;;5031789;28;20719;-80
2023/05/25 04:04:04;;;;;;;7.03;4.20;;;;;;;;;;5030232;28;20249;-80
2023/05/25 04:06:32;;;;;;;5.77;4.13;;;;;;;;;;5031805;28;20230;-80
2023/05/25 04:09:00;;;;;;;6.70;3.87;;;;;;;;;;5031601;28;20258;-80
2023/05/25 04:11:28;;;;;;;8.10;4.20;;;;;;;;;;5031116;28;20770;-81
2023/05/25 04:13:56;;;;;;;5.57;4.47;;;;;;;;;;5030832;28;20828;-81
2023/05/25 04:16:24;;;;;;;4.37;3.90;;;;;;;;;;5034537;28;20226;-82
2023/05/25 04:18:51;;;;;;;6.60;4.10;;;;;;;;;;5037219;28;20276;-82
2023/05/25 04:21:18;;;;;;;7.37;4.03;;;;;;;;;;5030836;28;20234;-82
2023/05/25 04:23:46;;;;;;;5.63;3.97;;;;;;;;;;5030046;28;20218;-80
2023/05/25 04:26:14;;;;;;;5.80;4.13;;;;;;;;;;5030748;28;20234;-80
2023/05/25 04:28:41;;;;;;;7.07;4.53;;;;;;;;;;5031382;28;20264;-82
2023/05/25 04:31:11;;;;;;;7.67;4.67;;;;;;;;;;5031151;28;20219;-80
2023/05/25 04:33:39;;;;;;;6.63;4.60;;;;;;;;;;5041940;28;20289;-80
2023/05/25 04:36:07;;;;;;;8.47;5.40;;;;;;;;;;5040996;28;20313;-80
2023/05/25 04:38:34;;;;;;;8.73;5.00;;;;;;;;;;5033634;28;20218;-85
2023/05/25 04:41:01;;;;;;;6.60;5.13;;;;;;;;;;5032757;28;20238;-79
2023/05/25 04:43:29;;;;;;;11.93;5.53;;;;;;;;;;5037159;28;20211;-80
2023/05/25 04:45:56;;;;;;;8.87;5.50;;;;;;;;;;5033125;28;20321;-81
2023/05/25 04:48:27;;;;;;;7.83;4.90;;;;;;;;;;5040774;28;20860;-80
2023/05/25 04:50:54;;;;;;;7.23;5.17;;;;;;;;;;5045885;28;20244;-80
2023/05/25 04:53:22;;;;;;;5.97;4.70;;;;;;;;;;5046303;28;20669;-80
2023/05/25 04:55:50;;;;;;;7.50;5.20;;;;;;;;;;5043320;28;20233;-80
2023/05/25 04:58:17;;;;;;;7.50;4.87;;;;;;;;;;5041383;28;20229;-80
2023/05/25 05:00:44;;;;;;;10.50;4.77;;;;;;;;;;5045756;28;20320;-80
2023/05/25 05:03:12;;;;;;;7.50;4.40;;;;;;;;;;5038545;28;20225;-80
2023/05/25 05:05:40;;;;;;;8.33;4.90;;;;;;;;;;5043723;28;20249;-80
2023/05/25 05:08:07;;;;;;;9.27;4.83;;;;;;;;;;5047087;28;20233;-80
2023/05/25 05:10:34;;;;;;;7.17;4.80;;;;;;;;;;5043169;28;20230;-80
2023/05/25 05:13:01;;;;;;;7.43;5.40;;;;;;;;;;5037499;28;20198;-82
2023/05/25 05:15:29;;;;;;;8.57;5.87;;;;;;;;;;5029823;28;20231;-81
2023/05/25 05:17:56;;;;;;;11.13;5.30;;;;;;;;;;5044281;28;20242;-82
2023/05/25 05:20:23;;;;;;;8.30;5.80;;;;;;;;;;5035513;28;20230;-82
2023/05/25 05:22:52;;;;;;;10.67;6.77;;;;;;;;;;5040862;28;20302;-82
2023/05/25 05:25:19;;;;;;;10.33;6.73;;;;;;;;;;5034704;28;20221;-82
2023/05/25 05:27:46;;;;;;;7.57;6.43;;;;;;;;;;5035978;28;20242;-82
2023/05/25 05:30:14;;;;;;;10.80;6.70;;;;;;;;;;5039484;28;20576;-83
2023/05/25 05:32:41;;;;;;;13.10;5.70;;;;;;;;;;5029065;28;20210;-82
2023/05/25 05:35:08;;;;;;;14.87;6.60;;;;;;;;;;5037274;28;20226;-82
2023/05/25 05:37:35;;;;;;;11.13;6.17;;;;;;;;;;5043317;28;20309;-82
2023/05/25 05:40:04;;;;;;;10.23;6.20;;;;;;;;;;5033864;28;20602;-82
2023/05/25 05:42:31;;;;;;;12.53;6.27;;;;;;;;;;5042326;28;20223;-82
2023/05/25 05:44:58;;;;;;;7.50;5.73;;;;;;;;;;5049733;28;20236;-81
2023/05/25 05:47:25;;;;;;;12.93;5.93;;;;;;;;;;5041656;28;20237;-81
2023/05/25 05:49:52;;;;;;;10.00;5.63;;;;;;;;;;5040000;28;20210;-81
2023/05/25 05:52:19;;;;;;;10.53;5.33;;;;;;;;;;5033451;28;20206;-80
2023/05/25 05:54:46;;;;;;;9.83;5.80;;;;;;;;;;5033806;28;20211;-81
2023/05/25 05:57:15;;;;;;;6.30;5.30;;;;;;;;;;5033872;28;20234;-81
2023/05/25 05:59:42;;;;;;;14.70;7.10;;;;;;;;;;5029508;28;20214;-81
2023/05/25 06:02:09;;;;;;;10.43;4.90;;;;;;;;;;5030429;28;20257;-81
2023/05/25 06:04:37;;;;;;;13.20;5.13;;;;;;;;;;5031876;28;20211;-82
2023/05/25 06:07:04;;;;;;;7.77;4.77;;;;;;;;;;5032658;28;20231;-81
2023/05/25 06:09:31;;;;;;;8.23;4.90;;;;;;;;;;5032811;28;20221;-81
2023/05/25 06:11:58;;;;;;;9.97;5.13;;;;;;;;;;5032329;28;20230;-81
2023/05/25 06:14:26;;;;;;;9.30;4.40;;;;;;;;;;5043013;28;20723;-81
2023/05/25 06:16:53;;;;;;;7.00;4.07;;;;;;;;;;5034846;28;20235;-81
2023/05/25 06:19:20;;;;;;;10.43;4.70;;;;;;;;;;5037453;28;20214;-82
2023/05/25 06:21:47;;;;;;;8.03;4.27;;;;;;;;;;5031667;28;20231;-81
2023/05/25 06:24:15;;;;;;;6.87;3.87;;;;;;;;;;5031549;28;20199;-81
2023/05/25 06:26:42;;;;;;;6.40;4.33;;;;;;;;;;5031539;28;20720;-81
2023/05/25 06:29:09;;;;;;;7.23;3.90;;;;;;;;;;5048511;28;20202;-81
2023/05/25 06:31:38;;;;;;;7.57;4.07;;;;;;;;;;5031844;28;20775;-81
2023/05/25 06:34:05;;;;;;;5.50;3.50;;;;;;;;;;5031704;28;20203;-81
2023/05/25 06:36:32;;;;;;;6.47;4.30;;;;;;;;;;5027153;28;20234;-81
2023/05/25 06:38:59;;;;;;;10.90;4.07;;;;;;;;;;5043856;28;20236;-82
2023/05/25 06:41:26;;;;;;;6.03;3.93;;;;;;;;;;5032304;28;20242;-81
2023/05/25 06:43:53;;;;;;;6.33;4.20;;;;;;;;;;5037942;28;20226;-81
2023/05/25 06:46:20;;;;;;;9.67;3.60;;;;;;;;;;5032803;28;20226;-82
2023/05/25 06:48:49;;;;;;;5.23;3.40;;;;;;;;;;5037317;28;20764;-81
2023/05/25 06:51:17;;;;;;;5.43;3.00;;;;;;;;;;5041392;28;20241;-81
2023/05/25 06:53:44;;;;;;;4.60;3.77;;;;;;;;;;5024760;28;20297;-82
2023/05/25 06:56:11;;;;;;;7.33;3.57;;;;;;;;;;5031156;28;20313;-81
2023/05/25 06:58:38;;;;;;;5.87;3.70;;;;;;;;;;5031743;28;20676;-81
2023/05/25 07:01:05;;;;;;;4.80;3.20;;;;;;;;;;5031077;28;20229;-81
2023/05/25 07:03:33;;;;;;;6.27;3.53;;;;;;;;;;5031006;28;20658;-81
2023/05/25 07:06:01;;;;;;;6.97;3.70;;;;;;;;;;5031360;28;20268;-81
2023/05/25 07:08:28;;;;;;;6.63;3.40;;;;;;;;;;5034179;28;20234;-81
2023/05/25 07:10:55;;;;;;;7.10;3.30;;;;;;;;;;5040863;28;20316;-80
2023/05/25 07:13:22;;;;;;;6.67;3.10;;;;;;;;;;5040996;28;20227;-81
2023/05/25 07:15:51;;;;;;;8.33;2.87;;;;;;;;;;5039288;28;20233;-81
2023/05/25 07:18:18;;;;;;;6.40;2.97;;;;;;;;;;5040495;28;20238;-81
2023/05/25 07:20:47;;;;;;;6.90;3.37;;;;;;;;;;5045322;28;20716;-80
2023/05/25 07:23:15;;;;;;;8.23;3.60;;;;;;;;;;5030549;28;20277;-80
2023/05/25 07:25:42;;;;;;;6.07;3.17;;;;;;;;;;5030658;28;20236;-81
2023/05/25 07:28:09;;;;;;;7.23;3.10;;;;;;;;;;5030578;28;20223;-81
2023/05/25 07:30:36;;;;;;;6.67;3.20;;;;;;;;;;5028413;28;20317;-81
2023/05/25 07:33:04;;;;;;;5.73;3.50;;;;;;;;;;5031391;28;20210;-81
2023/05/25 07:35:33;;;;;;;6.10;3.60;;;;;;;;;;5029826;28;20230;-81
2023/05/25 07:38:00;;;;;;;5.07;3.10;;;;;;;;;;5031046;28;20218;-81
2023/05/25 07:40:28;;;;;;;7.40;3.30;;;;;;;;;;5037163;28;20233;-82
2023/05/25 07:42:55;;;;;;;8.00;3.67;;;;;;;;;;5030837;28;20226;-82
2023/05/25 07:45:23;;;;;;;10.07;3.30;;;;;;;;;;5029637;28;20721;-81
2023/05/25 07:47:50;;;;;;;7.80;3.63;;;;;;;;;;5030756;28;20226;-82
2023/05/25 07:50:17;;;;;;;5.32;3.42;;;;;;;;;;5029459;28;20238;-81
2023/05/25 07:52:45;;;;;;;7.45;3.80;;;;;;;;;;5030006;28;20207;-82
2023/05/25 07:55:12;;;;;;;5.38;3.33;;;;;;;;;;5029013;28;20245;-82
2023/05/25 07:57:40;;;;;;;5.60;3.28;;;;;;;;;;5029305;28;20230;-82
2023/05/25 08:00:08;;;;;;;4.80;2.88;;;;;;;;;;5030317;28;20235;-86
2023/05/25 08:02:35;;;;;;;6.90;3.25;;;;;;;;;;5032142;28;20233;-86
2023/05/25 08:05:04;;;;;;;4.90;3.40;;;;;;;;;;5031469;28;20263;-86
2023/05/25 08:07:32;;;;;;;7.10;2.92;;;;;;;;;;5031657;28;20226;-86
2023/05/25 08:09:59;;;;;;;5.28;3.15;;;;;;;;;;5036625;28;20242;-85
2023/05/25 08:12:26;;;;;;;6.22;3.55;;;;;;;;;;5039109;28;20214;-86
2023/05/25 08:14:54;;;;;;;7.78;2.95;;;;;;;;;;5030594;28;20199;-85
2023/05/25 08:17:21;;;;;;;6.65;2.85;;;;;;;;;;5037984;28;20235;-86
2023/05/25 08:19:48;;;;;;;5.47;2.70;;;;;;;;;;5031013;28;20684;-86
2023/05/25 08:22:15;;;;;;;10.25;2.47;;;;;;;;;;5033649;28;20210;-86
2023/05/25 08:24:43;;;;;;;5.70;2.95;;;;;;;;;;5042639;28;20210;-85
2023/05/25 08:27:10;;;;;;;6.97;2.95;;;;;;;;;;5036410;28;20237;-86
2023/05/25 08:29:37;;;;;;;4.38;2.60;;;;;;;;;;5043655;28;20207;-85
2023/05/25 08:32:05;;;;;;;5.10;3.28;;;;;;;;;;5043082;28;20205;-87
2023/05/25 08:34:33;;;;;;;5.10;2.97;;;;;;;;;;5035573;28;20229;-87
2023/05/25 08:37:00;;;;;;;4.57;2.88;;;;;;;;;;5035272;28;20230;-86
2023/05/25 08:39:27;;;;;;;6.70;3.00;;;;;;;;;;5034792;28;20214;-86
2023/05/25 08:41:54;;;;;;;4.68;2.92;;;;;;;;;;5035320;28;20230;-86
2023/05/25 08:44:21;;;;;;;6.45;2.88;;;;;;;;;;5034454;28;20218;-86
2023/05/25 08:46:49;;;;;;;5.85;2.95;;;;;;;;;;5035562;28;20581;-87
2023/05/25 08:49:17;;;;;;;3.72;2.70;;;;;;;;;;5044490;28;20207;-87
2023/05/25 08:51:48;;;;;;;5.18;2.58;;;;;;;;;;5034075;28;20231;-88
2023/05/25 08:54:18;;;;;;;3.63;2.70;;;;;;;;;;5038921;28;20249;-86
2023/05/25 08:56:49;;;;;;;3.75;2.65;;;;;;;;;;5034540;28;20230;-87
2023/05/25 08:59:22;;;;;;;5.03;2.75;;;;;;;;;;5036901;28;20203;-87
2023/05/25 09:01:53;;;;;;;6.43;3.63;;;;;;;;;;5042651;28;20241;-88
2023/05/25 09:04:22;;;;;;;5.55;2.67;;;;;;;;;;5044145;28;20279;-87
2023/05/25 09:06:49;;;;;;;4.30;2.58;;;;;;;;;;5043662;28;20234;-87
2023/05/25 09:09:17;;;;;;;4.63;2.75;;;;;;;;;;5035880;28;20604;-87
2023/05/25 09:11:45;;;;;;;5.32;2.90;;;;;;;;;;5042822;28;20230;-88
2023/05/25 09:14:12;;;;;;;4.22;2.60;;;;;;;;;;5045476;28;20198;-87
2023/05/25 09:16:39;;;;;;;5.85;2.63;;;;;;;;;;5043915;28;20652;-88
2023/05/25 09:19:06;;;;;;;4.88;2.45;;;;;;;;;;5042172;28;20217;-88
2023/05/25 09:21:35;;;;;;;6.57;2.55;;;;;;;;;;5052762;28;20264;-88
2023/05/25 09:24:03;;;;;;;4.68;2.60;;;;;;;;;;5044527;28;20261;-87
2023/05/25 09:26:30;;;;;;;3.00;2.47;;;;;;;;;;5046470;28;20597;-88
2023/05/25 09:28:57;;;;;;;4.35;2.65;;;;;;;;;;5045790;28;20300;-86
2023/05/25 09:31:24;;;;;;;4.05;2.58;;;;;;;;;;5045991;28;20617;-87
2023/05/25 09:33:58;;;;;;;4.05;2.50;;;;;;;;;;5046791;28;20199;-88
2023/05/25 09:36:25;;;;;;;5.75;2.63;;;;;;;;;;5043633;28;20241;-86
2023/05/25 09:38:54;;;;;;;4.28;2.58;;;;;;;;;;5049976;28;20229;-86
2023/05/25 09:41:22;;;;;;;5.97;2.78;;;;;;;;;;5050602;28;20237;-86
2023/05/25 09:43:49;;;;;;;4.47;2.50;;;;;;;;;;5053606;28;20221;-87
2023/05/25 09:46:16;;;;;;;4.15;2.70;;;;;;;;;;5038427;28;20452;-86
2023/05/25 09:48:44;;;;;;;3.80;2.50;;;;;;;;;;5045610;28;20234;-86
2023/05/25 09:51:12;;;;;;;4.35;2.50;;;;;;;;;;5035055;28;20230;-87
2023/05/25 09:53:39;;;;;;;5.32;2.50;;;;;;;;;;5034066;28;20222;-86
2023/05/25 09:56:07;;;;;;;6.40;2.80;;;;;;;;;;5041795;28;20230;-86
2023/05/25 09:58:34;;;;;;;4.25;2.55;;;;;;;;;;5038972;28;20222;-86
2023/05/25 10:01:03;;;;;;;4.22;2.70;;;;;;;;;;5043136;28;20226;-86
2023/05/25 10:03:30;;;;;;;3.60;2.38;;;;;;;;;;5040978;28;20322;-85
2023/05/25 10:05:57;;;;;;;4.13;2.40;;;;;;;;;;5043320;28;20242;-87
2023/05/25 10:08:25;;;;;;;4.43;2.70;;;;;;;;;;5049704;28;20308;-86
2023/05/25 10:10:52;;;;;;;4.30;2.60;;;;;;;;;;5047482;28;20230;-86
2023/05/25 10:13:22;;;;;;;4.55;2.40;;;;;;;;;;5050179;28;20199;-87
2023/05/25 10:15:53;;;;;;;7.35;2.97;;;;;;;;;;5034766;28;20226;-86
2023/05/25 10:18:25;;;;;;;4.60;2.45;;;;;;;;;;5048336;28;20277;-88
2023/05/25 10:20:54;;;;;;;3.38;2.53;;;;;;;;;;5040970;28;20230;-86
2023/05/25 10:23:22;;;;;;;5.90;2.58;;;;;;;;;;5041604;28;20218;-88
2023/05/25 10:25:51;;;;;;;4.15;2.53;;;;;;;;;;5041262;28;20744;-91
2023/05/25 10:28:22;;;;;;;5.07;2.30;;;;;;;;;;5054815;28;20234;-89
2023/05/25 10:30:51;;;;;;;5.25;2.47;;;;;;;;;;5032038;28;20234;-91
2023/05/25 10:33:18;;;;;;;4.22;2.70;;;;;;;;;;5038417;28;20211;-89
2023/05/25 10:35:46;;;;;;;4.40;2.17;;;;;;;;;;5041120;28;20230;-89
2023/05/25 10:38:13;;;;;;;2.53;2.20;;;;;;;;;;5054690;28;20233;-89
2023/05/25 10:40:40;;;;;;;4.82;2.22;;;;;;;;;;5044077;28;20234;-89
2023/05/25 10:43:07;;;;;;;5.15;2.40;;;;;;;;;;5041626;28;20231;-89
2023/05/25 10:45:35;;;;;;;4.20;2.17;;;;;;;;;;5043000;28;20657;-88
2023/05/25 10:48:03;;;;;;;2.75;2.17;;;;;;;;;;5040918;28;20226;-88
2023/05/25 10:50:35;;;;;;;4.45;2.72;;;;;;;;;;5045876;28;20704;-88
2023/05/25 10:53:02;;;;;;;3.17;2.25;;;;;;;;;;5049527;28;20198;-89
2023/05/25 10:55:42;;;;;;;3.95;2.47;;;;;;;;;;5042922;28;20245;-87
2023/05/25 10:58:10;;;;;;;3.55;2.25;;;;;;;;;;5047242;28;20242;-88
2023/05/25 11:00:37;;;;;;;3.90;2.40;;;;;;;;;;5050566;28;20257;-90
2023/05/25 11:03:05;;;;;;;5.07;2.45;;;;;;;;;;5048125;28;20213;-89
2023/05/25 11:05:37;;;;;;;3.25;2.50;;;;;;;;;;5043783;28;20234;-88
2023/05/25 11:08:04;;;;;;;3.40;2.47;;;;;;;;;;5046329;28;20237;-89
2023/05/25 11:10:49;;;;;;;3.05;2.10;;;;;;;;;;5035885;28;20233;-87
2023/05/25 11:13:34;;;;;;;13.00;8.40;;;;;;;;;;5049860;28;20225;-88
2023/05/25 11:16:20;;;;;;;3.75;2.55;;;;;;;;;;5026846;28;20237;-89
2023/05/25 11:18:50;;;;;;;2.63;2.03;;;;;;;;;;5050393;28;20304;-90
2023/05/25 11:21:18;;;;;;;3.58;2.40;;;;;;;;;;5049423;28;20229;-88
2023/05/25 11:24:05;;;;;;;2.85;2.13;;;;;;;;;;5046044;28;20313;-89
2023/05/25 11:26:33;;;;;;;2.17;2.00;;;;;;;;;;5042834;28;20234;-90
2023/05/25 11:29:00;;;;;;;2.30;2.10;;;;;;;;;;5054336;28;20218;-87
2023/05/25 11:31:31;;;;;;;2.95;2.25;;;;;;;;;;5045022;28;20226;-90
2023/05/25 11:34:00;;;;;;;4.20;2.65;;;;;;;;;;5052522;28;20205;-87
2023/05/25 11:36:30;;;;;;;3.28;2.20;;;;;;;;;;5052175;28;20316;-89
2023/05/25 11:39:00;;;;;;;3.58;2.50;;;;;;;;;;5052880;28;20261;-90
2023/05/25 11:41:27;;;;;;;2.88;2.42;;;;;;;;;;5052715;28;20312;-89
2023/05/25 11:43:55;;;;;;;3.55;2.80;;;;;;;;;;5053018;28;20250;-90
2023/05/25 11:46:22;;;;;;;3.58;2.30;;;;;;;;;;5045908;28;20223;-90
2023/05/25 11:48:51;;;;;;;4.30;2.70;;;;;;;;;;5053463;28;20230;-89
2023/05/25 11:51:20;;;;;;;5.53;2.13;;;;;;;;;;5037601;28;20231;-90
2023/05/25 11:53:48;;;;;;;3.25;2.42;;;;;;;;;;5041073;28;20233;-91
2023/05/25 11:56:15;;;;;;;4.00;2.33;;;;;;;;;;5033762;28;20731;-89
2023/05/25 11:58:43;;;;;;;4.50;2.22;;;;;;;;;;5035664;28;20590;-90
2023/05/25 12:01:17;;;;;;;3.72;2.40;;;;;;;;;;5047267;28;20373;-91
2023/05/25 12:03:44;;;;;;;5.28;2.30;;;;;;;;;;5035269;28;20625;-89
2023/05/25 12:06:25;;;;;;;2.53;2.08;;;;;;;;;;5052287;28;20308;-89
2023/05/25 12:08:52;;;;;;;3.80;2.47;;;;;;;;;;5053116;28;20218;-90
2023/05/25 12:11:20;;;;;;;2.60;2.40;;;;;;;;;;5045475;28;20226;-91
2023/05/25 12:13:47;;;;;;;4.55;2.70;;;;;;;;;;5041229;28;20207;-90
2023/05/25 12:16:14;;;;;;;4.90;2.42;;;;;;;;;;5037951;28;20694;-89
2023/05/25 12:18:41;;;;;;;5.47;2.17;;;;;;;;;;5047712;28;20237;-89
2023/05/25 12:21:09;;;;;;;4.30;2.53;;;;;;;;;;5038938;28;20229;-90
2023/05/25 12:23:37;;;;;;;3.47;2.63;;;;;;;;;;5043209;28;20229;-90
2023/05/25 12:26:09;;;;;;;3.40;2.78;;;;;;;;;;5032433;28;20230;-89
2023/05/25 12:28:37;;;;;;;3.70;2.35;;;;;;;;;;5038895;28;20723;-90
2023/05/25 12:31:18;;;;;;;6.72;2.72;;;;;;;;;;5046797;28;20222;-90
2023/05/25 12:33:46;;;;;;;2.63;2.40;;;;;;;;;;5033803;28;20198;-89
2023/05/25 12:36:13;;;;;;;5.70;2.53;;;;;;;;;;5032994;28;20238;-88
2023/05/25 12:38:41;;;;;;;4.50;2.83;;;;;;;;;;5032711;28;20227;-89
2023/05/25 12:41:08;;;;;;;4.97;2.50;;;;;;;;;;5038373;28;20245;-89
2023/05/25 12:43:39;;;;;;;2.83;2.30;;;;;;;;;;5035001;28;20206;-90
2023/05/25 12:46:06;;;;;;;3.53;2.40;;;;;;;;;;5031440;28;20233;-91
2023/05/25 12:48:33;;;;;;;4.57;2.20;;;;;;;;;;5040011;28;20322;-89
2023/05/25 12:51:00;;;;;;;3.28;2.33;;;;;;;;;;5031576;28;20230;-88
2023/05/25 12:53:29;;;;;;;3.40;2.55;;;;;;;;;;5033966;28;20211;-89
2023/05/25 12:56:05;;;;;;;2.58;2.22;;;;;;;;;;5024257;28;20326;-89
2023/05/25 12:58:32;;;;;;;3.47;2.13;;;;;;;;;;5040129;28;20637;-89
2023/05/25 13:00:59;;;;;;;5.72;2.55;;;;;;;;;;5040624;28;20237;-92
2023/05/25 13:03:26;;;;;;;3.85;2.30;;;;;;;;;;5032479;28;20206;-92
2023/05/25 13:06:00;;;;;;;3.25;2.58;;;;;;;;;;5043321;28;20307;-91
2023/05/25 13:08:28;;;;;;;2.90;2.60;;;;;;;;;;5046469;28;20276;-91
2023/05/25 13:10:56;;;;;;;3.65;2.63;;;;;;;;;;5035936;28;20858;-92
2023/05/25 13:13:24;;;;;;;3.30;2.58;;;;;;;;;;5036527;28;20222;-90
2023/05/25 13:15:52;;;;;;;3.25;2.45;;;;;;;;;;5035335;28;20724;-92
2023/05/25 13:18:19;;;;;;;3.13;2.42;;;;;;;;;;5036326;28;20238;-91
2023/05/25 13:20:46;;;;;;;3.03;2.40;;;;;;;;;;5035494;28;20241;-91
2023/05/25 13:23:15;;;;;;;4.78;2.60;;;;;;;;;;5036179;28;20202;-91
2023/05/25 13:25:43;;;;;;;2.72;2.40;;;;;;;;;;5034280;28;20242;-89
2023/05/25 13:28:11;;;;;;;4.07;2.38;;;;;;;;;;5044437;28;20218;-90
2023/05/25 13:30:39;;;;;;;2.90;2.47;;;;;;;;;;5035074;28;20261;-91
2023/05/25 13:33:06;;;;;;;3.00;2.45;;;;;;;;;;5036302;28;20203;-90
2023/05/25 13:35:56;;;;;;;3.72;2.75;;;;;;;;;;5036637;28;20238;-89
2023/05/25 13:38:23;;;;;;;3.72;2.30;;;;;;;;;;5037602;28;20222;-91
2023/05/25 13:40:50;;;;;;;3.70;2.53;;;;;;;;;;5038669;28;20230;-93
2023/05/25 13:43:17;;;;;;;2.63;2.38;;;;;;;;;;5047450;28;20241;-90
2023/05/25 13:45:46;;;;;;;3.03;2.40;;;;;;;;;;5041212;28;20263;-89
2023/05/25 13:48:14;;;;;;;2.78;2.55;;;;;;;;;;5045599;28;20232;-91
2023/05/25 13:50:43;;;;;;;2.85;2.33;;;;;;;;;;5053632;28;20234;-90
2023/05/25 13:53:11;;;;;;;3.67;2.30;;;;;;;;;;5036413;28;20198;-90
2023/05/25 13:55:38;;;;;;;4.13;2.55;;;;;;;;;;5040773;28;20234;-91
2023/05/25 13:58:05;;;;;;;2.75;2.50;;;;;;;;;;5038365;28;20222;-89
2023/05/25 14:00:32;;;;;;;3.38;2.53;;;;;;;;;;5038081;28;20238;-88
2023/05/25 14:03:01;;;;;;;3.35;2.55;;;;;;;;;;5034490;28;20414;-88
2023/05/25 14:05:30;;;;;;;4.63;2.65;;;;;;;;;;5041293;28;20242;-91
2023/05/25 14:07:59;;;;;;;3.58;2.53;;;;;;;;;;5039300;28;20282;-90
2023/05/25 14:10:26;;;;;;;3.47;2.53;;;;;;;;;;5047371;28;20234;-91
2023/05/25 14:12:54;;;;;;;4.00;2.53;;;;;;;;;;5057388;28;20197;-93
2023/05/25 14:15:21;;;;;;;3.85;2.65;;;;;;;;;;5042786;28;20237;-93
2023/05/25 14:17:48;;;;;;;4.85;2.65;;;;;;;;;;5054953;28;20244;-92
2023/05/25 14:20:23;;;;;;;3.90;2.80;;;;;;;;;;5035398;28;20230;-91
2023/05/25 14:22:50;;;;;;;3.60;2.95;;;;;;;;;;5046744;23;20325;-83
2023/05/25 14:25:17;;;;;;;3.17;2.20;;;;;;;;;;5023159;28;20235;-82
2023/05/25 14:27:45;;;;;;;3.20;2.33;;;;;;;;;;5024043;28;20218;-84
2023/05/25 14:30:12;;;;;;;8.13;2.90;;;;;;;;;;5029414;28;20704;-84
2023/05/25 14:32:39;;;;;;;3.17;2.45;;;;;;;;;;5032075;28;20242;-84
2023/05/25 14:35:07;;;;;;;3.38;2.45;;;;;;;;;;5024007;28;20222;-84
2023/05/25 14:37:35;;;;;;;3.60;2.45;;;;;;;;;;5032759;28;20663;-83
2023/05/25 14:40:02;;;;;;;4.38;2.42;;;;;;;;;;5024513;28;20253;-84
2023/05/25 14:42:30;;;;;;;2.83;2.58;;;;;;;;;;5024932;28;20677;-84
2023/05/25 14:44:57;;;;;;;4.20;2.40;;;;;;;;;;5030806;28;20312;-83
2023/05/25 14:47:24;;;;;;;2.97;2.63;;;;;;;;;;5032582;28;20206;-84